Renova, Mississippi
Current Conditions -  °F | °C
As of 3:55 AM on Sunday 26 Oct 2014 (Local Time) from KRNV Reporting Station
Haze Haze  
Wind Chill: 61°   Ceiling: Unl
Heat Index: 61°   Visibility: 5mi
Dew Point: 61°   Wind: 3mph
Humidity: 100%   Direction: 210°SSW
Pressure: 30.01"   Gusts: NA
Location:  33.7903°N, 90.8559°W
Report Text: KRNV 260855Z AUTO 21003KT 5SM BR CLR 16/16 A3001 RMK AO2 T01620162
Loading
Personal Weather Stations






























Interactive Weather Map New forecast layout! Learn more

10-Day Weather Forecast

Advertisements
Track Severe Weather on mobile